TNCA/AUA METAR and TAF weather

Enter ICAO airport designator
Station Type Date Time Source
TNCA METAR 2021/05/07 01:00 UTC NOAA

TNCA 070100Z 09016KT 9999 FEW018 27/23 Q1013 NOSIG


Station Type Date Time Source
TNCA Decoded METAR 2021/05/07 01:00 UTC NOAA

Queen Beatrix Airport, Aruba (TNCA) 12-30N 070-01W 33M
May 06, 2021 - 09:00 PM EDT / 2021.05.07 0100 UTC
Wind: from the E (090 degrees) at 18 MPH (16 KT):0
Visibility: greater than 7 mile(s):0
Sky conditions: mostly clear
Temperature: 80 F (27 C)
Dew Point: 73 F (23 C)
Relative Humidity: 78%
Pressure (altimeter): 29.91 in. Hg (1013 hPa)
ob: TNCA 070100Z 09016KT 9999 FEW018 27/23 Q1013 NOSIG
cycle: 1

Station Type Date Time Source
TNCA TAF 2021/05/07 00:07 UTC NOAA

TAF TNCA 070000Z 0700/0724 08016KT 9999 FEW018

Example: see airport list